createdAt,value
2023-03-31T00:00:47.854Z,94887.00
2023-03-31T00:01:47.826Z,94885.00
2023-03-31T00:02:47.874Z,94887.00
2023-03-31T00:03:48.071Z,94887.00
2023-03-31T00:04:47.804Z,94889.00
2023-03-31T00:05:47.802Z,94887.00
2023-03-31T00:06:47.802Z,94885.00
2023-03-31T00:07:47.780Z,94883.00
2023-03-31T00:08:47.791Z,94885.00
2023-03-31T00:09:47.755Z,94883.00
2023-03-31T00:10:47.763Z,94881.00
2023-03-31T00:11:47.766Z,94873.00
2023-03-31T00:12:47.744Z,94877.00
2023-03-31T00:13:47.752Z,94873.00
2023-03-31T00:14:47.723Z,94871.00
2023-03-31T00:15:47.742Z,94867.00
2023-03-31T00:16:47.743Z,94861.00
2023-03-31T00:17:47.747Z,94865.00
2023-03-31T00:18:48.022Z,94859.00
2023-03-31T00:19:47.686Z,94863.00
2023-03-31T00:20:47.700Z,94855.00
2023-03-31T00:21:47.718Z,94861.00
2023-03-31T00:22:47.700Z,94861.00
2023-03-31T00:23:47.714Z,94855.00
2023-03-31T00:24:47.745Z,94855.00
2023-03-31T00:25:47.753Z,94855.00
2023-03-31T00:26:47.789Z,94857.00
2023-03-31T00:27:47.781Z,94850.00
2023-03-31T00:28:47.814Z,94848.00
2023-03-31T00:29:47.826Z,94846.00
2023-03-31T00:30:47.828Z,94844.00
2023-03-31T00:31:47.866Z,94848.00
2023-03-31T00:32:47.918Z,94844.00
2023-03-31T00:33:47.894Z,94842.00
2023-03-31T00:34:47.897Z,94840.00
2023-03-31T00:35:47.999Z,94838.00
2023-03-31T00:36:48.058Z,94836.00
2023-03-31T00:37:48.004Z,94840.00
2023-03-31T00:38:47.978Z,94830.00
2023-03-31T00:39:48.006Z,94830.00
2023-03-31T00:40:48.005Z,94828.00
2023-03-31T00:41:48.060Z,94828.00
2023-03-31T00:42:48.043Z,94828.00
2023-03-31T00:43:48.060Z,94828.00
2023-03-31T00:44:48.123Z,94828.00
2023-03-31T00:45:48.252Z,94826.00
2023-03-31T00:46:48.177Z,94826.00
2023-03-31T00:47:48.206Z,94822.00
2023-03-31T00:48:48.178Z,94820.00
2023-03-31T00:49:48.232Z,94820.00
2023-03-31T00:50:48.205Z,94818.00
2023-03-31T00:51:48.244Z,94816.00
2023-03-31T00:52:48.263Z,94814.00
2023-03-31T00:53:48.252Z,94813.00
2023-03-31T00:54:48.320Z,94811.00
2023-03-31T00:55:48.281Z,94807.00
2023-03-31T00:56:48.318Z,94807.00
2023-03-31T00:57:48.324Z,94805.00
2023-03-31T00:58:48.333Z,94805.00
2023-03-31T00:59:48.359Z,94807.00
2023-03-31T01:00:48.485Z,94803.00
2023-03-31T01:01:48.424Z,94801.00
2023-03-31T01:02:48.410Z,94797.00
2023-03-31T01:03:48.458Z,94795.00
2023-03-31T01:04:48.439Z,94795.00
2023-03-31T01:05:48.473Z,94793.00
2023-03-31T01:06:48.483Z,94793.00
2023-03-31T01:07:48.451Z,94793.00
2023-03-31T01:08:48.483Z,94793.00
2023-03-31T01:09:48.507Z,94791.00
2023-03-31T01:10:48.506Z,94785.00
2023-03-31T01:11:48.573Z,94789.00
2023-03-31T01:12:48.601Z,94785.00
2023-03-31T01:13:48.567Z,94783.00
2023-03-31T01:14:48.617Z,94785.00
2023-03-31T01:15:48.649Z,94779.00
2023-03-31T01:16:48.830Z,94777.00
2023-03-31T01:17:48.703Z,94775.00
2023-03-31T01:18:48.694Z,94771.00
2023-03-31T01:19:48.702Z,94769.00
2023-03-31T01:20:48.691Z,94767.00
2023-03-31T01:21:48.727Z,94766.00
2023-03-31T01:22:48.754Z,94764.00
2023-03-31T01:23:48.772Z,94767.00
2023-03-31T01:24:48.796Z,94764.00
2023-03-31T01:25:48.827Z,94764.00
2023-03-31T01:26:48.850Z,94764.00
2023-03-31T01:27:48.816Z,94764.00
2023-03-31T01:28:48.840Z,94762.00
2023-03-31T01:29:48.860Z,94764.00
2023-03-31T01:30:48.901Z,94760.00
2023-03-31T01:31:48.919Z,94760.00
2023-03-31T01:32:48.982Z,94758.00
2023-03-31T01:33:48.966Z,94758.00
2023-03-31T01:34:48.953Z,94758.00
2023-03-31T01:35:49.050Z,94756.00
2023-03-31T01:36:49.005Z,94756.00
2023-03-31T01:37:49.001Z,94758.00
2023-03-31T01:38:49.058Z,94756.00
2023-03-31T01:39:49.081Z,94754.00
2023-03-31T01:40:49.089Z,94752.00
2023-03-31T01:41:49.096Z,94746.00
2023-03-31T01:42:49.151Z,94748.00
2023-03-31T01:43:49.129Z,94750.00
2023-03-31T01:44:49.175Z,94750.00
2023-03-31T01:45:49.192Z,94748.00
2023-03-31T01:46:49.243Z,94742.00
2023-03-31T01:47:49.247Z,94740.00
2023-03-31T01:48:49.246Z,94736.00
2023-03-31T01:49:49.229Z,94738.00
2023-03-31T01:50:49.258Z,94736.00
2023-03-31T01:51:49.302Z,94734.00
2023-03-31T01:52:49.316Z,94734.00
2023-03-31T01:53:49.341Z,94736.00
2023-03-31T01:54:49.337Z,94738.00
2023-03-31T01:55:49.353Z,94736.00
2023-03-31T01:56:49.386Z,94734.00
2023-03-31T01:57:49.406Z,94730.00
2023-03-31T01:58:49.430Z,94732.00
2023-03-31T01:59:49.449Z,94736.00
2023-03-31T02:00:49.481Z,94734.00
2023-03-31T02:01:49.517Z,94736.00
2023-03-31T02:02:49.585Z,94732.00
2023-03-31T02:03:49.630Z,94734.00
2023-03-31T02:04:49.547Z,94736.00
2023-03-31T02:05:49.576Z,94736.00
2023-03-31T02:06:49.569Z,94736.00
2023-03-31T02:07:49.645Z,94734.00
2023-03-31T02:08:49.622Z,94728.00
2023-03-31T02:09:49.639Z,94727.00
2023-03-31T02:10:49.668Z,94727.00
2023-03-31T02:11:49.691Z,94728.00
2023-03-31T02:12:49.716Z,94727.00
2023-03-31T02:13:49.716Z,94725.00
2023-03-31T02:14:49.766Z,94720.00
2023-03-31T02:15:49.811Z,94717.00
2023-03-31T02:16:49.872Z,94717.00
2023-03-31T02:17:49.869Z,94713.00
2023-03-31T02:18:49.838Z,94711.00
2023-03-31T02:19:49.901Z,94707.00
2023-03-31T02:20:49.874Z,94707.00
2023-03-31T02:21:49.932Z,94705.00
2023-03-31T02:22:49.942Z,94705.00
2023-03-31T02:23:49.947Z,94707.00
2023-03-31T02:24:49.960Z,94703.00
2023-03-31T02:25:49.984Z,94701.00
2023-03-31T02:26:50.010Z,94695.00
2023-03-31T02:27:50.034Z,94693.00
2023-03-31T02:28:50.064Z,94689.00
2023-03-31T02:29:50.102Z,94685.00
2023-03-31T02:30:50.104Z,94681.00
2023-03-31T02:31:50.137Z,94674.00
2023-03-31T02:32:50.468Z,94674.00
2023-03-31T02:33:50.145Z,94672.00
2023-03-31T02:34:50.155Z,94674.00
2023-03-31T02:35:50.240Z,94681.00
2023-03-31T02:36:50.182Z,94683.00
2023-03-31T02:37:50.250Z,94687.00
2023-03-31T02:38:50.228Z,94685.00
2023-03-31T02:39:50.276Z,94681.00
2023-03-31T02:40:50.302Z,94683.00
2023-03-31T02:41:50.293Z,94672.00
2023-03-31T02:42:50.307Z,94674.00
2023-03-31T02:43:50.346Z,94672.00
2023-03-31T02:44:50.373Z,94674.00
2023-03-31T02:45:50.409Z,94681.00
2023-03-31T02:46:50.411Z,94681.00
2023-03-31T02:47:50.428Z,94685.00
2023-03-31T02:48:50.439Z,94687.00
2023-03-31T02:49:50.466Z,94689.00
2023-03-31T02:50:50.498Z,94691.00
2023-03-31T02:51:50.515Z,94693.00
2023-03-31T02:52:50.566Z,94691.00
2023-03-31T02:53:50.545Z,94689.00
2023-03-31T02:54:50.570Z,94689.00
2023-03-31T02:55:50.601Z,94687.00
2023-03-31T02:56:50.659Z,94683.00
2023-03-31T02:57:50.633Z,94674.00
2023-03-31T02:58:50.674Z,94672.00
2023-03-31T02:59:50.677Z,94670.00
2023-03-31T03:00:50.733Z,94672.00
2023-03-31T03:01:50.724Z,94666.00
2023-03-31T03:02:50.830Z,94662.00
2023-03-31T03:03:50.751Z,94656.00
2023-03-31T03:04:50.777Z,94646.00
2023-03-31T03:05:50.767Z,94642.00
2023-03-31T03:06:50.785Z,94638.00
2023-03-31T03:07:50.797Z,94632.00
2023-03-31T03:08:50.819Z,94634.00
2023-03-31T03:09:50.831Z,94636.00
2023-03-31T03:10:50.837Z,94640.00
2023-03-31T03:11:50.845Z,94638.00
2023-03-31T03:12:50.840Z,94640.00
2023-03-31T03:13:50.860Z,94636.00
2023-03-31T03:14:50.863Z,94638.00
2023-03-31T03:15:50.881Z,94636.00
2023-03-31T03:16:50.929Z,94638.00
2023-03-31T03:17:50.924Z,94640.00
2023-03-31T03:18:50.866Z,94640.00
2023-03-31T03:19:50.862Z,94642.00
2023-03-31T03:20:50.895Z,94638.00
2023-03-31T03:21:50.866Z,94640.00
2023-03-31T03:22:50.888Z,94636.00
2023-03-31T03:23:50.877Z,94638.00
2023-03-31T03:24:50.870Z,94638.00
2023-03-31T03:25:50.883Z,94634.00
2023-03-31T03:26:50.840Z,94630.00
2023-03-31T03:27:50.856Z,94627.00
2023-03-31T03:28:50.843Z,94619.00
2023-03-31T03:29:50.833Z,94613.00
2023-03-31T03:30:50.852Z,94613.00
2023-03-31T03:31:50.856Z,94611.00
2023-03-31T03:32:50.901Z,94615.00
2023-03-31T03:33:50.810Z,94611.00
2023-03-31T03:34:50.845Z,94603.00
2023-03-31T03:35:50.854Z,94593.00
2023-03-31T03:36:50.810Z,94588.00
2023-03-31T03:37:50.816Z,94586.00
2023-03-31T03:38:50.825Z,94586.00
2023-03-31T03:39:50.837Z,94586.00
2023-03-31T03:40:50.864Z,94591.00
2023-03-31T03:41:50.880Z,94591.00
2023-03-31T03:42:50.917Z,94588.00
2023-03-31T03:43:50.899Z,94584.00
2023-03-31T03:44:50.906Z,94578.00
2023-03-31T03:45:50.970Z,94576.00
2023-03-31T03:46:51.076Z,94576.00
2023-03-31T03:47:51.048Z,94574.00
2023-03-31T03:48:51.052Z,94574.00
2023-03-31T03:49:51.105Z,94572.00
2023-03-31T03:50:51.177Z,94564.00
2023-03-31T03:51:51.205Z,94562.00
2023-03-31T03:52:51.261Z,94558.00
2023-03-31T03:53:51.362Z,94556.00
2023-03-31T03:54:51.382Z,94552.00
2023-03-31T03:55:51.452Z,94550.00
2023-03-31T03:56:51.580Z,94556.00
2023-03-31T03:57:51.539Z,94560.00
2023-03-31T03:58:51.631Z,94558.00
2023-03-31T03:59:51.697Z,94562.00
2023-03-31T04:00:51.695Z,94558.00
2023-03-31T04:02:51.808Z,94556.00
2023-03-31T04:03:51.911Z,94556.00
2023-03-31T04:04:51.972Z,94554.00
2023-03-31T04:05:52.006Z,94552.00
2023-03-31T04:06:52.039Z,94552.00
2023-03-31T04:07:52.131Z,94546.00
2023-03-31T04:08:52.214Z,94544.00
2023-03-31T04:09:52.255Z,94542.00
2023-03-31T04:10:52.317Z,94541.00
2023-03-31T04:11:52.384Z,94544.00
2023-03-31T04:12:52.453Z,94546.00
2023-03-31T04:13:52.514Z,94544.00
2023-03-31T04:14:52.594Z,94539.00
2023-03-31T04:15:52.684Z,94533.00
2023-03-31T04:16:52.704Z,94531.00
2023-03-31T04:17:52.756Z,94531.00
2023-03-31T04:18:52.824Z,94533.00
2023-03-31T04:19:52.851Z,94537.00
2023-03-31T04:20:52.904Z,94537.00
2023-03-31T04:21:52.971Z,94539.00
2023-03-31T04:22:53.040Z,94539.00
2023-03-31T04:23:53.114Z,94541.00
2023-03-31T04:24:53.173Z,94541.00
2023-03-31T04:25:53.242Z,94537.00
2023-03-31T04:26:53.275Z,94535.00
2023-03-31T04:27:53.322Z,94537.00
2023-03-31T04:28:53.379Z,94539.00
2023-03-31T04:29:53.448Z,94541.00
2023-03-31T04:30:53.496Z,94544.00
2023-03-31T04:31:53.614Z,94544.00
2023-03-31T04:32:53.696Z,94548.00
2023-03-31T04:33:53.678Z,94542.00
2023-03-31T04:34:53.712Z,94539.00
2023-03-31T04:35:53.783Z,94539.00
2023-03-31T04:36:53.816Z,94537.00
2023-03-31T04:37:53.894Z,94533.00
2023-03-31T04:38:53.947Z,94535.00
2023-03-31T04:39:54.001Z,94537.00
2023-03-31T04:40:54.088Z,94541.00
2023-03-31T04:41:54.129Z,94539.00
2023-03-31T04:42:54.141Z,94531.00
2023-03-31T04:43:54.232Z,94529.00
2023-03-31T04:44:54.285Z,94525.00
2023-03-31T04:45:54.510Z,94525.00
2023-03-31T04:46:54.409Z,94521.00
2023-03-31T04:47:54.468Z,94519.00
2023-03-31T04:48:54.527Z,94515.00
2023-03-31T04:49:54.552Z,94513.00
2023-03-31T04:50:54.591Z,94509.00
2023-03-31T04:51:54.674Z,94505.00
2023-03-31T04:52:54.745Z,94503.00
2023-03-31T04:53:54.806Z,94503.00
2023-03-31T04:54:54.859Z,94499.00
2023-03-31T04:55:54.898Z,94503.00
2023-03-31T04:56:55.038Z,94497.00
2023-03-31T04:57:55.008Z,94492.00
2023-03-31T04:58:55.054Z,94480.00
2023-03-31T04:59:55.139Z,94476.00
2023-03-31T05:01:02.213Z,94474.00
2023-03-31T05:01:55.168Z,94474.00
2023-03-31T05:02:55.297Z,94476.00
2023-03-31T05:03:55.155Z,94478.00
2023-03-31T05:04:55.146Z,94474.00
2023-03-31T05:05:55.162Z,94470.00
2023-03-31T05:06:55.152Z,94470.00
2023-03-31T05:07:55.128Z,94472.00
2023-03-31T05:08:55.106Z,94474.00
2023-03-31T05:09:55.122Z,94476.00
2023-03-31T05:10:55.113Z,94472.00
2023-03-31T05:11:55.136Z,94470.00
2023-03-31T05:12:55.100Z,94464.00
2023-03-31T05:13:55.109Z,94458.00
2023-03-31T05:14:55.102Z,94460.00
2023-03-31T05:15:55.111Z,94458.00
2023-03-31T05:16:55.142Z,94455.00
2023-03-31T05:17:55.096Z,94451.00
2023-03-31T05:18:55.071Z,94449.00
2023-03-31T05:19:55.083Z,94449.00
2023-03-31T05:20:55.073Z,94441.00
2023-03-31T05:21:55.061Z,94433.00
2023-03-31T05:22:55.042Z,94417.00
2023-03-31T05:23:55.051Z,94417.00
2023-03-31T05:24:55.131Z,94415.00
2023-03-31T05:25:55.145Z,94431.00
2023-03-31T05:26:55.242Z,94439.00
2023-03-31T05:27:55.273Z,94437.00
2023-03-31T05:28:56.000Z,94429.00
2023-03-31T05:29:55.408Z,94417.00
2023-03-31T05:30:55.458Z,94415.00
2023-03-31T05:31:55.567Z,94411.00
2023-03-31T05:32:55.678Z,94408.00
2023-03-31T05:33:55.679Z,94410.00
2023-03-31T05:34:55.718Z,94408.00
2023-03-31T05:35:55.813Z,94413.00
2023-03-31T05:36:55.875Z,94410.00
2023-03-31T05:37:55.897Z,94404.00
2023-03-31T05:38:56.054Z,94406.00
2023-03-31T05:39:55.994Z,94410.00
2023-03-31T05:40:55.948Z,94411.00
2023-03-31T05:41:55.909Z,94410.00
2023-03-31T05:42:55.975Z,94408.00
2023-03-31T05:43:56.003Z,94394.00
2023-03-31T05:44:56.487Z,94382.00
2023-03-31T05:46:02.977Z,94378.00
2023-03-31T05:46:55.910Z,94376.00
2023-03-31T05:47:55.983Z,94378.00
2023-03-31T05:48:55.900Z,94386.00
2023-03-31T05:49:56.009Z,94390.00
2023-03-31T05:50:55.944Z,94390.00
2023-03-31T05:51:55.875Z,94388.00
2023-03-31T05:52:55.933Z,94382.00
2023-03-31T05:53:55.865Z,94380.00
2023-03-31T05:54:56.035Z,94380.00
2023-03-31T05:55:55.887Z,94376.00
2023-03-31T05:56:55.935Z,94370.00
2023-03-31T05:57:55.887Z,94363.00
2023-03-31T05:58:55.858Z,94361.00
2023-03-31T05:59:56.431Z,94366.00
2023-03-31T06:00:55.849Z,94368.00
2023-03-31T06:01:55.855Z,94370.00
2023-03-31T06:02:55.887Z,94372.00
2023-03-31T06:03:55.937Z,94374.00
2023-03-31T06:04:55.812Z,94380.00
2023-03-31T06:05:55.812Z,94378.00
2023-03-31T06:06:55.804Z,94374.00
2023-03-31T06:07:55.796Z,94364.00
2023-03-31T06:08:55.787Z,94359.00
2023-03-31T06:09:55.831Z,94357.00
2023-03-31T06:10:55.765Z,94363.00
2023-03-31T06:11:55.747Z,94366.00
2023-03-31T06:12:55.762Z,94368.00
2023-03-31T06:13:55.725Z,94366.00
2023-03-31T06:14:55.725Z,94355.00
2023-03-31T06:15:55.772Z,94351.00
2023-03-31T06:16:57.756Z,94347.00
2023-03-31T06:17:55.849Z,94343.00
2023-03-31T06:18:55.755Z,94343.00
2023-03-31T06:19:55.812Z,94349.00
2023-03-31T06:20:55.806Z,94343.00
2023-03-31T06:21:55.832Z,94343.00
2023-03-31T06:22:55.843Z,94343.00
2023-03-31T06:23:55.885Z,94339.00
2023-03-31T06:24:55.943Z,94343.00
2023-03-31T06:25:56.175Z,94337.00
2023-03-31T06:26:55.981Z,94327.00
2023-03-31T06:27:55.958Z,94331.00
2023-03-31T06:28:55.946Z,94327.00
2023-03-31T06:29:55.995Z,94325.00
2023-03-31T06:30:56.019Z,94317.00
2023-03-31T06:31:56.054Z,94317.00
2023-03-31T06:32:56.053Z,94319.00
2023-03-31T06:33:56.056Z,94316.00
2023-03-31T06:34:56.041Z,94319.00
2023-03-31T06:35:56.082Z,94317.00
2023-03-31T06:36:56.090Z,94319.00
2023-03-31T06:37:56.076Z,94319.00
2023-03-31T06:38:56.092Z,94319.00
2023-03-31T06:39:56.144Z,94317.00
2023-03-31T06:40:56.111Z,94316.00
2023-03-31T06:41:56.100Z,94302.00
2023-03-31T06:42:56.100Z,94300.00
2023-03-31T06:43:56.100Z,94292.00
2023-03-31T06:44:56.100Z,94300.00
2023-03-31T06:45:56.156Z,94306.00
2023-03-31T06:46:56.129Z,94298.00
2023-03-31T06:47:56.202Z,94302.00
2023-03-31T06:48:56.094Z,94306.00
2023-03-31T06:49:56.110Z,94319.00
2023-03-31T06:50:56.108Z,94325.00
2023-03-31T06:51:56.062Z,94323.00
2023-03-31T06:52:56.120Z,94308.00
2023-03-31T06:53:56.099Z,94310.00
2023-03-31T06:54:56.116Z,94314.00
2023-03-31T06:55:56.116Z,94323.00
2023-03-31T06:56:56.209Z,94327.00
2023-03-31T06:57:56.167Z,94327.00
2023-03-31T06:58:56.204Z,94327.00
2023-03-31T06:59:56.266Z,94331.00
2023-03-31T07:00:56.300Z,94331.00
2023-03-31T07:01:56.354Z,94333.00
2023-03-31T07:02:56.412Z,94337.00
2023-03-31T07:03:56.398Z,94339.00
2023-03-31T07:04:56.540Z,94343.00
2023-03-31T07:05:56.447Z,94347.00
2023-03-31T07:06:56.489Z,94345.00
2023-03-31T07:07:56.531Z,94335.00
2023-03-31T07:08:56.608Z,94321.00
2023-03-31T07:09:56.643Z,94308.00
2023-03-31T07:10:56.713Z,94302.00
2023-03-31T07:11:57.092Z,94300.00
2023-03-31T07:12:56.814Z,94290.00
2023-03-31T07:13:56.809Z,94280.00
2023-03-31T07:14:56.806Z,94282.00
2023-03-31T07:15:56.853Z,94286.00
2023-03-31T07:16:56.792Z,94282.00
2023-03-31T07:17:56.867Z,94284.00
2023-03-31T07:18:56.802Z,94278.00
2023-03-31T07:19:57.073Z,94263.00
2023-03-31T07:20:56.820Z,94261.00
2023-03-31T07:21:56.815Z,94265.00
2023-03-31T07:22:56.831Z,94269.00
2023-03-31T07:23:56.814Z,94275.00
2023-03-31T07:24:57.056Z,94282.00
2023-03-31T07:25:56.812Z,94284.00
2023-03-31T07:26:56.871Z,94282.00
2023-03-31T07:27:56.810Z,94280.00
2023-03-31T07:28:56.814Z,94275.00
2023-03-31T07:29:56.874Z,94271.00
2023-03-31T07:30:56.839Z,94263.00
2023-03-31T07:31:56.962Z,94259.00
2023-03-31T07:32:56.935Z,94257.00
2023-03-31T07:33:56.885Z,94247.00
2023-03-31T07:34:56.920Z,94241.00
2023-03-31T07:36:10.770Z,94235.00
2023-03-31T07:36:57.921Z,94237.00
2023-03-31T07:37:56.928Z,94235.00
2023-03-31T07:38:56.907Z,94233.00
2023-03-31T07:39:56.911Z,94225.00
2023-03-31T07:41:07.744Z,94223.00
2023-03-31T07:41:57.923Z,94220.00
2023-03-31T07:42:56.885Z,94223.00
2023-03-31T07:43:56.953Z,94220.00
2023-03-31T07:44:56.944Z,94220.00
2023-03-31T07:45:56.892Z,94210.00
2023-03-31T07:46:56.860Z,94208.00
2023-03-31T07:47:56.932Z,94206.00
2023-03-31T07:48:56.870Z,94206.00
2023-03-31T07:49:56.843Z,94206.00
2023-03-31T07:50:57.061Z,94204.00
2023-03-31T07:51:56.821Z,94202.00
2023-03-31T07:52:56.851Z,94196.00
2023-03-31T07:53:56.814Z,94186.00
2023-03-31T07:54:56.843Z,94183.00
2023-03-31T07:55:57.053Z,94179.00
2023-03-31T07:56:56.819Z,94183.00
2023-03-31T07:57:56.799Z,94190.00
2023-03-31T07:58:57.926Z,94198.00
2023-03-31T07:59:56.773Z,94196.00
2023-03-31T08:00:56.835Z,94186.00
2023-03-31T08:01:56.913Z,94181.00
2023-03-31T08:02:56.959Z,94181.00
2023-03-31T08:03:57.932Z,94177.00
2023-03-31T08:04:56.887Z,94157.00
2023-03-31T08:05:57.046Z,94173.00
2023-03-31T08:06:56.877Z,94171.00
2023-03-31T08:07:56.866Z,94177.00
2023-03-31T08:08:56.874Z,94179.00
2023-03-31T08:09:56.859Z,94183.00
2023-03-31T08:10:56.849Z,94179.00
2023-03-31T08:11:56.824Z,94169.00
2023-03-31T08:12:56.895Z,94155.00
2023-03-31T08:13:56.920Z,94159.00
2023-03-31T08:14:56.846Z,94175.00
2023-03-31T08:15:56.946Z,94173.00
2023-03-31T08:16:56.967Z,94157.00
2023-03-31T08:17:57.042Z,94149.00
2023-03-31T08:18:57.118Z,94151.00
2023-03-31T08:19:58.462Z,94157.00
2023-03-31T08:20:57.123Z,94159.00
2023-03-31T08:21:57.132Z,94159.00
2023-03-31T08:22:57.213Z,94157.00
2023-03-31T08:23:57.112Z,94159.00
2023-03-31T08:24:57.102Z,94161.00
2023-03-31T08:25:57.076Z,94169.00
2023-03-31T08:26:57.109Z,94161.00
2023-03-31T08:27:57.165Z,94161.00
2023-03-31T08:28:57.076Z,94169.00
2023-03-31T08:29:57.085Z,94169.00
2023-03-31T08:30:57.049Z,94157.00
2023-03-31T08:31:57.084Z,94157.00
2023-03-31T08:32:57.129Z,94161.00
2023-03-31T08:33:57.079Z,94146.00
2023-03-31T08:34:57.049Z,94138.00
2023-03-31T08:35:57.131Z,94132.00
2023-03-31T08:36:57.029Z,94132.00
2023-03-31T08:37:57.008Z,94130.00
2023-03-31T08:38:56.987Z,94132.00
2023-03-31T08:39:57.010Z,94130.00
2023-03-31T08:40:57.009Z,94118.00
2023-03-31T08:41:56.993Z,94106.00
2023-03-31T08:42:56.984Z,94100.00
2023-03-31T08:43:57.062Z,94097.00
2023-03-31T08:44:56.945Z,94114.00
2023-03-31T08:45:57.039Z,94118.00
2023-03-31T08:46:56.971Z,94110.00
2023-03-31T08:47:57.012Z,94108.00
2023-03-31T08:48:56.949Z,94108.00
2023-03-31T08:49:56.935Z,94104.00
2023-03-31T08:50:57.107Z,94110.00
2023-03-31T08:51:56.941Z,94112.00
2023-03-31T08:52:56.929Z,94110.00
2023-03-31T08:53:56.946Z,94110.00
2023-03-31T08:54:56.896Z,94102.00
2023-03-31T08:55:56.887Z,94099.00
2023-03-31T08:56:56.943Z,94099.00
2023-03-31T08:57:56.862Z,94097.00
2023-03-31T08:58:56.906Z,94100.00
2023-03-31T08:59:56.886Z,94094.00
2023-03-31T09:00:57.146Z,94091.00
2023-03-31T09:01:57.120Z,94083.00
2023-03-31T09:02:56.877Z,94079.00
2023-03-31T09:03:56.963Z,94073.00
2023-03-31T09:04:56.840Z,94075.00
2023-03-31T09:05:59.996Z,94077.00
2023-03-31T09:06:56.860Z,94079.00
2023-03-31T09:07:56.852Z,94075.00
2023-03-31T09:08:56.881Z,94069.00
2023-03-31T09:09:56.863Z,94069.00
2023-03-31T09:10:56.849Z,94067.00
2023-03-31T09:11:56.863Z,94063.00
2023-03-31T09:12:56.843Z,94055.00
2023-03-31T09:13:56.834Z,94052.00
2023-03-31T09:14:56.818Z,94057.00
2023-03-31T09:15:56.817Z,94057.00
2023-03-31T09:16:56.842Z,94057.00
2023-03-31T09:17:56.822Z,94050.00
2023-03-31T09:18:56.771Z,94044.00
2023-03-31T09:19:56.825Z,94042.00
2023-03-31T09:20:56.819Z,94044.00
2023-03-31T09:21:56.802Z,94042.00
2023-03-31T09:22:56.764Z,94042.00
2023-03-31T09:23:56.738Z,94038.00
2023-03-31T09:24:56.739Z,94036.00
2023-03-31T09:25:56.709Z,94030.00
2023-03-31T09:26:56.711Z,94024.00
2023-03-31T09:27:56.746Z,94018.00
2023-03-31T09:28:56.727Z,94010.00
2023-03-31T09:29:56.720Z,94006.00
2023-03-31T09:30:56.711Z,94003.00
2023-03-31T09:31:56.783Z,94005.00
2023-03-31T09:32:56.905Z,94008.00
2023-03-31T09:33:56.710Z,94006.00
2023-03-31T09:34:56.701Z,94005.00
2023-03-31T09:35:56.687Z,94003.00
2023-03-31T09:36:56.662Z,94005.00
2023-03-31T09:37:56.663Z,94001.00
2023-03-31T09:38:56.631Z,94005.00
2023-03-31T09:39:56.658Z,94014.00
2023-03-31T09:40:56.654Z,94010.00
2023-03-31T09:41:56.648Z,94006.00
2023-03-31T09:42:56.624Z,93999.00
2023-03-31T09:43:56.634Z,93991.00
2023-03-31T09:44:56.608Z,93981.00
2023-03-31T09:46:56.714Z,93981.00
2023-03-31T09:47:56.601Z,93985.00
2023-03-31T09:48:56.570Z,93987.00
2023-03-31T09:49:56.569Z,93987.00
2023-03-31T09:50:56.589Z,93993.00
2023-03-31T09:51:56.540Z,93993.00
2023-03-31T09:52:56.531Z,93993.00
2023-03-31T09:53:56.548Z,93999.00
2023-03-31T09:54:56.544Z,94001.00
2023-03-31T09:55:56.528Z,93997.00
2023-03-31T09:56:56.531Z,93999.00
2023-03-31T09:57:56.498Z,93999.00
2023-03-31T09:58:56.489Z,93997.00
2023-03-31T09:59:56.508Z,93995.00
2023-03-31T10:00:56.494Z,94001.00
2023-03-31T10:01:56.565Z,93999.00
2023-03-31T10:02:57.131Z,93993.00
2023-03-31T10:03:56.512Z,93991.00
2023-03-31T10:04:56.533Z,93993.00
2023-03-31T10:05:56.446Z,93985.00
2023-03-31T10:06:56.460Z,93989.00
2023-03-31T10:07:56.466Z,93987.00
2023-03-31T10:08:56.435Z,93991.00
2023-03-31T10:09:56.420Z,93995.00
2023-03-31T10:10:56.537Z,94003.00
2023-03-31T10:11:56.439Z,94005.00
2023-03-31T10:12:56.427Z,94005.00
2023-03-31T10:13:56.405Z,94003.00
2023-03-31T10:14:56.401Z,94005.00
2023-03-31T10:15:56.417Z,94005.00
2023-03-31T10:16:56.630Z,94003.00
2023-03-31T10:17:56.466Z,94005.00
2023-03-31T10:18:56.371Z,94005.00
2023-03-31T10:19:56.431Z,94010.00
2023-03-31T10:20:56.374Z,94014.00
2023-03-31T10:21:56.398Z,94016.00
2023-03-31T10:22:56.350Z,94014.00
2023-03-31T10:23:56.345Z,94016.00
2023-03-31T10:24:57.233Z,94016.00
2023-03-31T10:25:56.388Z,94014.00
2023-03-31T10:26:56.316Z,94014.00
2023-03-31T10:27:56.332Z,94016.00
2023-03-31T10:28:56.306Z,94012.00
2023-03-31T10:29:56.356Z,94010.00
2023-03-31T10:30:56.348Z,94006.00
2023-03-31T10:31:56.342Z,94005.00
2023-03-31T10:32:56.328Z,94001.00
2023-03-31T10:33:56.269Z,94003.00
2023-03-31T10:34:56.266Z,93995.00
2023-03-31T10:35:56.300Z,93995.00
2023-03-31T10:36:56.270Z,93989.00
2023-03-31T10:37:56.640Z,93985.00
2023-03-31T10:38:56.224Z,93985.00
2023-03-31T10:39:56.258Z,93983.00
2023-03-31T10:40:56.337Z,93981.00
2023-03-31T10:41:56.216Z,93981.00
2023-03-31T10:42:56.222Z,93979.00
2023-03-31T10:43:56.203Z,93975.00
2023-03-31T10:44:56.187Z,93973.00
2023-03-31T10:45:56.172Z,93973.00
2023-03-31T10:46:56.296Z,93979.00
2023-03-31T10:47:56.718Z,93981.00
2023-03-31T10:48:56.231Z,93977.00
2023-03-31T10:49:56.182Z,93979.00
2023-03-31T10:50:56.156Z,93975.00
2023-03-31T10:51:56.164Z,93969.00
2023-03-31T10:52:56.638Z,93971.00
2023-03-31T10:53:56.128Z,93969.00
2023-03-31T10:54:56.109Z,93967.00
2023-03-31T10:55:56.116Z,93958.00
2023-03-31T10:56:56.169Z,93959.00
2023-03-31T10:57:56.093Z,93954.00
2023-03-31T10:59:04.611Z,93963.00
2023-03-31T10:59:57.210Z,93963.00
2023-03-31T11:00:56.062Z,93965.00
2023-03-31T11:01:57.687Z,93963.00
2023-03-31T11:02:56.112Z,93969.00
2023-03-31T11:03:56.262Z,93963.00
2023-03-31T11:04:56.060Z,93961.00
2023-03-31T11:05:56.048Z,93959.00
2023-03-31T11:06:56.030Z,93965.00
2023-03-31T11:07:56.013Z,93959.00
2023-03-31T11:08:56.040Z,93965.00
2023-03-31T11:09:56.008Z,93963.00
2023-03-31T11:10:56.009Z,93959.00
2023-03-31T11:11:55.980Z,93961.00
2023-03-31T11:12:55.983Z,93959.00
2023-03-31T11:13:55.987Z,93961.00
2023-03-31T11:14:56.010Z,93959.00
2023-03-31T11:15:55.990Z,93952.00
2023-03-31T11:16:55.986Z,93950.00
2023-03-31T11:17:56.036Z,93952.00
2023-03-31T11:18:55.958Z,93950.00
2023-03-31T11:19:55.964Z,93944.00
2023-03-31T11:20:55.951Z,93946.00
2023-03-31T11:21:55.917Z,93950.00
2023-03-31T11:22:55.906Z,93956.00
2023-03-31T11:23:55.920Z,93958.00
2023-03-31T11:24:55.885Z,93963.00
2023-03-31T11:25:55.910Z,93963.00
2023-03-31T11:26:55.897Z,93963.00
2023-03-31T11:27:56.152Z,93963.00
2023-03-31T11:28:55.913Z,93961.00
2023-03-31T11:29:55.896Z,93958.00
2023-03-31T11:30:55.864Z,93958.00
2023-03-31T11:31:55.911Z,93956.00
2023-03-31T11:32:56.223Z,93952.00
2023-03-31T11:33:55.819Z,93956.00
2023-03-31T11:34:55.842Z,93952.00
2023-03-31T11:35:55.920Z,93954.00
2023-03-31T11:36:55.802Z,93959.00
2023-03-31T11:37:56.168Z,93956.00
2023-03-31T11:38:55.781Z,93956.00
2023-03-31T11:39:55.770Z,93963.00
2023-03-31T11:40:55.795Z,93969.00
2023-03-31T11:41:55.795Z,93971.00
2023-03-31T11:42:55.775Z,93965.00
2023-03-31T11:43:55.740Z,93969.00
2023-03-31T11:44:55.759Z,93973.00
2023-03-31T11:45:55.833Z,93971.00
2023-03-31T11:46:55.754Z,93967.00